sensor_id;sensor_type;location;lat;lon;timestamp;temperature;humidity
22379;DHT22;11357;49.990;7.370;2023-06-26T00:01:23;21.60;57.00
22379;DHT22;11357;49.990;7.370;2023-06-26T00:03:49;21.60;57.20
22379;DHT22;11357;49.990;7.370;2023-06-26T00:06:15;21.60;57.40
22379;DHT22;11357;49.990;7.370;2023-06-26T00:08:44;21.50;57.30
22379;DHT22;11357;49.990;7.370;2023-06-26T00:11:10;21.60;57.50
22379;DHT22;11357;49.990;7.370;2023-06-26T00:13:35;21.50;57.40
22379;DHT22;11357;49.990;7.370;2023-06-26T00:16:01;21.50;57.40
22379;DHT22;11357;49.990;7.370;2023-06-26T00:18:29;21.50;57.30
22379;DHT22;11357;49.990;7.370;2023-06-26T00:20:54;21.50;57.20
22379;DHT22;11357;49.990;7.370;2023-06-26T00:23:20;21.50;57.20
22379;DHT22;11357;49.990;7.370;2023-06-26T00:25:46;21.50;57.30
22379;DHT22;11357;49.990;7.370;2023-06-26T00:28:12;21.40;57.50
22379;DHT22;11357;49.990;7.370;2023-06-26T00:30:38;21.40;57.60
22379;DHT22;11357;49.990;7.370;2023-06-26T00:33:03;21.40;57.60
22379;DHT22;11357;49.990;7.370;2023-06-26T00:35:29;21.30;58.30
22379;DHT22;11357;49.990;7.370;2023-06-26T00:37:55;21.30;57.80
22379;DHT22;11357;49.990;7.370;2023-06-26T00:40:21;21.30;57.90
22379;DHT22;11357;49.990;7.370;2023-06-26T00:42:46;21.20;58.00
22379;DHT22;11357;49.990;7.370;2023-06-26T00:45:12;21.20;58.10
22379;DHT22;11357;49.990;7.370;2023-06-26T00:47:38;21.20;59.00
22379;DHT22;11357;49.990;7.370;2023-06-26T00:50:05;21.10;58.60
22379;DHT22;11357;49.990;7.370;2023-06-26T00:52:31;21.10;58.60
22379;DHT22;11357;49.990;7.370;2023-06-26T00:54:58;21.00;59.30
22379;DHT22;11357;49.990;7.370;2023-06-26T00:57:24;21.00;58.80
22379;DHT22;11357;49.990;7.370;2023-06-26T00:59:50;21.00;58.80
22379;DHT22;11357;49.990;7.370;2023-06-26T01:02:16;21.00;58.90
22379;DHT22;11357;49.990;7.370;2023-06-26T01:04:49;20.90;59.00
22379;DHT22;11357;49.990;7.370;2023-06-26T01:07:16;20.90;59.30
22379;DHT22;11357;49.990;7.370;2023-06-26T01:09:48;20.80;59.40
22379;DHT22;11357;49.990;7.370;2023-06-26T01:12:14;20.80;59.50
22379;DHT22;11357;49.990;7.370;2023-06-26T01:14:40;20.80;59.50
22379;DHT22;11357;49.990;7.370;2023-06-26T01:17:08;20.80;59.60
22379;DHT22;11357;49.990;7.370;2023-06-26T01:19:37;20.80;59.60
22379;DHT22;11357;49.990;7.370;2023-06-26T01:25:17;20.60;59.90
22379;DHT22;11357;49.990;7.370;2023-06-26T01:27:46;20.60;60.20
22379;DHT22;11357;49.990;7.370;2023-06-26T01:30:12;20.60;60.10
22379;DHT22;11357;49.990;7.370;2023-06-26T01:32:39;20.50;60.20
22379;DHT22;11357;49.990;7.370;2023-06-26T01:35:07;20.50;60.20
22379;DHT22;11357;49.990;7.370;2023-06-26T01:37:33;20.50;60.30
22379;DHT22;11357;49.990;7.370;2023-06-26T01:39:59;20.50;60.30
22379;DHT22;11357;49.990;7.370;2023-06-26T01:42:25;20.50;60.30
22379;DHT22;11357;49.990;7.370;2023-06-26T01:44:51;20.40;60.40
22379;DHT22;11357;49.990;7.370;2023-06-26T01:47:21;20.40;60.60
22379;DHT22;11357;49.990;7.370;2023-06-26T01:49:54;20.30;60.70
22379;DHT22;11357;49.990;7.370;2023-06-26T01:57:26;20.30;61.00
22379;DHT22;11357;49.990;7.370;2023-06-26T01:59:55;20.30;61.90
22379;DHT22;11357;49.990;7.370;2023-06-26T02:02:23;20.20;61.20
22379;DHT22;11357;49.990;7.370;2023-06-26T02:04:50;20.10;61.40
22379;DHT22;11357;49.990;7.370;2023-06-26T02:07:16;20.00;61.50
22379;DHT22;11357;49.990;7.370;2023-06-26T02:09:41;19.90;61.70
22379;DHT22;11357;49.990;7.370;2023-06-26T02:12:08;19.80;62.00
22379;DHT22;11357;49.990;7.370;2023-06-26T02:14:33;19.70;62.30
22379;DHT22;11357;49.990;7.370;2023-06-26T02:16:59;19.70;62.50
22379;DHT22;11357;49.990;7.370;2023-06-26T02:19:26;19.60;62.70
22379;DHT22;11357;49.990;7.370;2023-06-26T02:21:53;19.50;62.70
22379;DHT22;11357;49.990;7.370;2023-06-26T02:24:19;19.50;63.00
22379;DHT22;11357;49.990;7.370;2023-06-26T02:26:48;19.40;63.10
22379;DHT22;11357;49.990;7.370;2023-06-26T02:29:15;19.40;63.30
22379;DHT22;11357;49.990;7.370;2023-06-26T02:31:41;19.40;63.30
22379;DHT22;11357;49.990;7.370;2023-06-26T02:34:06;19.40;63.40
22379;DHT22;11357;49.990;7.370;2023-06-26T02:36:32;19.30;63.50
22379;DHT22;11357;49.990;7.370;2023-06-26T02:38:58;19.30;63.60
22379;DHT22;11357;49.990;7.370;2023-06-26T02:41:24;19.30;63.60
22379;DHT22;11357;49.990;7.370;2023-06-26T02:43:49;19.30;63.60
22379;DHT22;11357;49.990;7.370;2023-06-26T02:46:15;19.30;63.70
22379;DHT22;11357;49.990;7.370;2023-06-26T02:48:41;19.10;63.90
22379;DHT22;11357;49.990;7.370;2023-06-26T02:51:08;19.20;64.10
22379;DHT22;11357;49.990;7.370;2023-06-26T02:53:33;19.20;64.20
22379;DHT22;11357;49.990;7.370;2023-06-26T02:55:59;19.10;64.20
22379;DHT22;11357;49.990;7.370;2023-06-26T02:58:25;19.10;64.40
22379;DHT22;11357;49.990;7.370;2023-06-26T03:00:51;19.10;64.60
22379;DHT22;11357;49.990;7.370;2023-06-26T03:03:17;19.10;64.80
22379;DHT22;11357;49.990;7.370;2023-06-26T03:05:43;19.10;64.80
22379;DHT22;11357;49.990;7.370;2023-06-26T03:08:09;19.20;64.80
22379;DHT22;11357;49.990;7.370;2023-06-26T03:10:34;19.20;64.70
22379;DHT22;11357;49.990;7.370;2023-06-26T03:13:00;19.20;64.70
22379;DHT22;11357;49.990;7.370;2023-06-26T03:15:26;19.20;64.80
22379;DHT22;11357;49.990;7.370;2023-06-26T03:17:52;19.20;65.00
22379;DHT22;11357;49.990;7.370;2023-06-26T03:20:18;19.10;65.00
22379;DHT22;11357;49.990;7.370;2023-06-26T03:22:43;19.10;65.00
22379;DHT22;11357;49.990;7.370;2023-06-26T03:25:09;19.10;65.00
22379;DHT22;11357;49.990;7.370;2023-06-26T03:27:35;19.10;65.10
22379;DHT22;11357;49.990;7.370;2023-06-26T03:30:01;19.00;65.20
22379;DHT22;11357;49.990;7.370;2023-06-26T03:32:27;19.10;65.30
22379;DHT22;11357;49.990;7.370;2023-06-26T03:34:52;19.10;65.40
22379;DHT22;11357;49.990;7.370;2023-06-26T03:37:18;19.10;65.40
22379;DHT22;11357;49.990;7.370;2023-06-26T03:39:44;19.00;65.30
22379;DHT22;11357;49.990;7.370;2023-06-26T03:42:10;19.00;65.40
22379;DHT22;11357;49.990;7.370;2023-06-26T03:44:35;19.00;65.30
22379;DHT22;11357;49.990;7.370;2023-06-26T03:47:01;19.00;65.50
22379;DHT22;11357;49.990;7.370;2023-06-26T03:49:27;19.00;65.40
22379;DHT22;11357;49.990;7.370;2023-06-26T03:51:53;19.00;65.60
22379;DHT22;11357;49.990;7.370;2023-06-26T03:54:18;19.00;65.90
22379;DHT22;11357;49.990;7.370;2023-06-26T03:56:44;19.00;66.10
22379;DHT22;11357;49.990;7.370;2023-06-26T03:59:10;19.00;66.10
22379;DHT22;11357;49.990;7.370;2023-06-26T04:01:37;19.00;66.10
22379;DHT22;11357;49.990;7.370;2023-06-26T04:04:03;19.00;66.30
22379;DHT22;11357;49.990;7.370;2023-06-26T04:06:29;19.00;66.40
22379;DHT22;11357;49.990;7.370;2023-06-26T04:08:57;19.00;66.50
22379;DHT22;11357;49.990;7.370;2023-06-26T04:11:23;19.00;66.80
22379;DHT22;11357;49.990;7.370;2023-06-26T04:13:49;19.00;66.80
22379;DHT22;11357;49.990;7.370;2023-06-26T04:16:15;19.00;66.90
22379;DHT22;11357;49.990;7.370;2023-06-26T04:18:41;19.10;67.10
22379;DHT22;11357;49.990;7.370;2023-06-26T04:21:12;19.10;67.20
22379;DHT22;11357;49.990;7.370;2023-06-26T04:23:39;19.10;67.40
22379;DHT22;11357;49.990;7.370;2023-06-26T04:26:06;19.10;67.40
22379;DHT22;11357;49.990;7.370;2023-06-26T04:28:35;19.20;68.20
22379;DHT22;11357;49.990;7.370;2023-06-26T04:31:02;19.20;67.70
22379;DHT22;11357;49.990;7.370;2023-06-26T04:33:31;19.20;67.60
22379;DHT22;11357;49.990;7.370;2023-06-26T04:35:56;19.20;67.70
22379;DHT22;11357;49.990;7.370;2023-06-26T04:38:23;19.20;67.80
22379;DHT22;11357;49.990;7.370;2023-06-26T04:40:49;19.40;67.80
22379;DHT22;11357;49.990;7.370;2023-06-26T04:43:15;19.50;67.80
22379;DHT22;11357;49.990;7.370;2023-06-26T04:45:41;19.70;67.90
22379;DHT22;11357;49.990;7.370;2023-06-26T04:48:06;19.80;67.80
22379;DHT22;11357;49.990;7.370;2023-06-26T04:50:32;20.00;67.90
22379;DHT22;11357;49.990;7.370;2023-06-26T04:52:59;20.20;67.90
22379;DHT22;11357;49.990;7.370;2023-06-26T04:55:25;20.50;68.00
22379;DHT22;11357;49.990;7.370;2023-06-26T04:57:51;20.70;67.60
22379;DHT22;11357;49.990;7.370;2023-06-26T05:00:17;20.80;67.10
22379;DHT22;11357;49.990;7.370;2023-06-26T05:02:43;21.00;66.80
22379;DHT22;11357;49.990;7.370;2023-06-26T05:05:09;21.20;66.60
22379;DHT22;11357;49.990;7.370;2023-06-26T05:07:36;21.40;66.40
22379;DHT22;11357;49.990;7.370;2023-06-26T05:10:01;21.60;66.40
22379;DHT22;11357;49.990;7.370;2023-06-26T05:12:27;21.80;66.50
22379;DHT22;11357;49.990;7.370;2023-06-26T05:14:53;22.10;66.40
22379;DHT22;11357;49.990;7.370;2023-06-26T05:17:20;22.30;66.40
22379;DHT22;11357;49.990;7.370;2023-06-26T05:19:46;22.60;66.20
22379;DHT22;11357;49.990;7.370;2023-06-26T05:22:13;22.80;65.90
22379;DHT22;11357;49.990;7.370;2023-06-26T05:24:39;23.00;65.50
22379;DHT22;11357;49.990;7.370;2023-06-26T05:27:06;23.20;64.20
22379;DHT22;11357;49.990;7.370;2023-06-26T05:29:32;23.40;64.30
22379;DHT22;11357;49.990;7.370;2023-06-26T05:31:59;23.60;63.30
22379;DHT22;11357;49.990;7.370;2023-06-26T05:34:26;23.80;62.70
22379;DHT22;11357;49.990;7.370;2023-06-26T05:37:00;23.90;61.50
22379;DHT22;11357;49.990;7.370;2023-06-26T05:39:27;24.00;60.60
22379;DHT22;11357;49.990;7.370;2023-06-26T05:41:53;24.20;59.40
22379;DHT22;11357;49.990;7.370;2023-06-26T05:44:19;24.30;58.70
22379;DHT22;11357;49.990;7.370;2023-06-26T05:46:46;24.40;58.40
22379;DHT22;11357;49.990;7.370;2023-06-26T05:49:12;24.50;58.10
22379;DHT22;11357;49.990;7.370;2023-06-26T05:51:38;24.50;58.10
22379;DHT22;11357;49.990;7.370;2023-06-26T05:54:04;24.60;58.40
22379;DHT22;11357;49.990;7.370;2023-06-26T05:56:30;24.60;58.70
22379;DHT22;11357;49.990;7.370;2023-06-26T05:58:56;24.80;58.70
22379;DHT22;11357;49.990;7.370;2023-06-26T06:01:22;25.00;58.70
22379;DHT22;11357;49.990;7.370;2023-06-26T06:03:49;25.20;58.20
22379;DHT22;11357;49.990;7.370;2023-06-26T06:06:14;25.40;57.30
22379;DHT22;11357;49.990;7.370;2023-06-26T06:08:41;25.50;57.10
22379;DHT22;11357;49.990;7.370;2023-06-26T06:11:07;25.60;56.80
22379;DHT22;11357;49.990;7.370;2023-06-26T06:13:33;25.60;56.30
22379;DHT22;11357;49.990;7.370;2023-06-26T06:15:59;25.60;56.10
22379;DHT22;11357;49.990;7.370;2023-06-26T06:18:26;25.50;56.00
22379;DHT22;11357;49.990;7.370;2023-06-26T06:20:51;25.50;56.30
22379;DHT22;11357;49.990;7.370;2023-06-26T06:23:17;25.50;56.40
22379;DHT22;11357;49.990;7.370;2023-06-26T06:25:43;25.50;56.20
22379;DHT22;11357;49.990;7.370;2023-06-26T06:28:08;25.40;56.10
22379;DHT22;11357;49.990;7.370;2023-06-26T06:30:34;25.40;56.30
22379;DHT22;11357;49.990;7.370;2023-06-26T06:33:01;25.50;56.50
22379;DHT22;11357;49.990;7.370;2023-06-26T06:35:27;25.50;56.00
22379;DHT22;11357;49.990;7.370;2023-06-26T06:37:52;25.50;56.10
22379;DHT22;11357;49.990;7.370;2023-06-26T06:40:18;25.60;56.00
22379;DHT22;11357;49.990;7.370;2023-06-26T06:42:44;25.50;55.70
22379;DHT22;11357;49.990;7.370;2023-06-26T06:45:09;25.50;55.90
22379;DHT22;11357;49.990;7.370;2023-06-26T06:47:36;25.50;55.80
22379;DHT22;11357;49.990;7.370;2023-06-26T06:50:02;25.60;56.10
22379;DHT22;11357;49.990;7.370;2023-06-26T06:52:37;25.70;55.90
22379;DHT22;11357;49.990;7.370;2023-06-26T06:55:04;26.00;55.90
22379;DHT22;11357;49.990;7.370;2023-06-26T06:57:35;26.20;55.70
22379;DHT22;11357;49.990;7.370;2023-06-26T07:00:11;26.40;55.00
22379;DHT22;11357;49.990;7.370;2023-06-26T07:02:38;26.60;54.90
22379;DHT22;11357;49.990;7.370;2023-06-26T07:05:04;26.70;54.90
22379;DHT22;11357;49.990;7.370;2023-06-26T07:07:32;26.80;54.60
22379;DHT22;11357;49.990;7.370;2023-06-26T07:10:09;26.90;55.30
22379;DHT22;11357;49.990;7.370;2023-06-26T07:12:35;26.90;55.00
22379;DHT22;11357;49.990;7.370;2023-06-26T07:15:02;26.90;55.10
22379;DHT22;11357;49.990;7.370;2023-06-26T07:17:30;26.90;55.00
22379;DHT22;11357;49.990;7.370;2023-06-26T07:19:56;26.80;55.00
22379;DHT22;11357;49.990;7.370;2023-06-26T07:22:23;26.80;54.80
22379;DHT22;11357;49.990;7.370;2023-06-26T07:24:49;27.00;54.80
22379;DHT22;11357;49.990;7.370;2023-06-26T07:27:15;27.20;54.50
22379;DHT22;11357;49.990;7.370;2023-06-26T07:29:42;27.40;53.80
22379;DHT22;11357;49.990;7.370;2023-06-26T07:32:08;27.40;54.00
22379;DHT22;11357;49.990;7.370;2023-06-26T07:34:33;27.40;54.00
22379;DHT22;11357;49.990;7.370;2023-06-26T07:36:59;27.50;54.20
22379;DHT22;11357;49.990;7.370;2023-06-26T07:39:25;27.70;54.30
22379;DHT22;11357;49.990;7.370;2023-06-26T07:41:51;27.90;54.20
22379;DHT22;11357;49.990;7.370;2023-06-26T07:44:17;28.10;53.90
22379;DHT22;11357;49.990;7.370;2023-06-26T07:46:43;28.40;53.80
22379;DHT22;11357;49.990;7.370;2023-06-26T07:49:10;28.60;53.70
22379;DHT22;11357;49.990;7.370;2023-06-26T07:51:36;28.90;53.00
22379;DHT22;11357;49.990;7.370;2023-06-26T07:54:03;29.10;52.40
22379;DHT22;11357;49.990;7.370;2023-06-26T07:56:29;29.30;52.50
22379;DHT22;11357;49.990;7.370;2023-06-26T07:58:58;29.40;52.50
22379;DHT22;11357;49.990;7.370;2023-06-26T08:01:25;29.50;52.10
22379;DHT22;11357;49.990;7.370;2023-06-26T08:03:51;29.60;51.70
22379;DHT22;11357;49.990;7.370;2023-06-26T08:06:17;29.70;51.90
22379;DHT22;11357;49.990;7.370;2023-06-26T08:08:44;29.80;51.10
22379;DHT22;11357;49.990;7.370;2023-06-26T08:11:10;29.80;50.40
22379;DHT22;11357;49.990;7.370;2023-06-26T08:13:35;29.70;50.30
22379;DHT22;11357;49.990;7.370;2023-06-26T08:16:01;29.70;49.70
22379;DHT22;11357;49.990;7.370;2023-06-26T08:18:27;29.70;49.40
22379;DHT22;11357;49.990;7.370;2023-06-26T08:20:52;29.60;49.30
22379;DHT22;11357;49.990;7.370;2023-06-26T08:23:18;29.70;50.00
22379;DHT22;11357;49.990;7.370;2023-06-26T08:25:44;30.00;50.00
22379;DHT22;11357;49.990;7.370;2023-06-26T08:28:10;30.50;49.60
22379;DHT22;11357;49.990;7.370;2023-06-26T08:30:35;30.80;49.10
22379;DHT22;11357;49.990;7.370;2023-06-26T08:33:01;31.30;48.40
22379;DHT22;11357;49.990;7.370;2023-06-26T08:35:27;31.70;48.00
22379;DHT22;11357;49.990;7.370;2023-06-26T08:37:53;32.20;47.20
22379;DHT22;11357;49.990;7.370;2023-06-26T08:40:20;32.60;46.20
22379;DHT22;11357;49.990;7.370;2023-06-26T08:42:46;33.00;46.10
22379;DHT22;11357;49.990;7.370;2023-06-26T08:45:12;33.40;45.50
22379;DHT22;11357;49.990;7.370;2023-06-26T08:47:38;33.60;44.90
22379;DHT22;11357;49.990;7.370;2023-06-26T08:50:12;33.70;44.80
22379;DHT22;11357;49.990;7.370;2023-06-26T08:52:53;33.90;44.70
22379;DHT22;11357;49.990;7.370;2023-06-26T08:55:22;34.00;43.90
22379;DHT22;11357;49.990;7.370;2023-06-26T08:57:51;34.20;43.70
22379;DHT22;11357;49.990;7.370;2023-06-26T09:00:18;34.40;43.60
22379;DHT22;11357;49.990;7.370;2023-06-26T09:02:44;34.70;43.30
22379;DHT22;11357;49.990;7.370;2023-06-26T09:05:11;34.90;43.00
22379;DHT22;11357;49.990;7.370;2023-06-26T09:07:37;35.30;42.60
22379;DHT22;11357;49.990;7.370;2023-06-26T09:10:03;35.60;41.90
22379;DHT22;11357;49.990;7.370;2023-06-26T09:12:29;35.90;41.20
22379;DHT22;11357;49.990;7.370;2023-06-26T09:14:56;35.90;40.30
22379;DHT22;11357;49.990;7.370;2023-06-26T09:17:29;36.00;39.60
22379;DHT22;11357;49.990;7.370;2023-06-26T09:19:55;36.20;39.20
22379;DHT22;11357;49.990;7.370;2023-06-26T09:22:20;36.20;39.00
22379;DHT22;11357;49.990;7.370;2023-06-26T09:24:48;36.40;38.80
22379;DHT22;11357;49.990;7.370;2023-06-26T09:27:14;36.60;38.00
22379;DHT22;11357;49.990;7.370;2023-06-26T09:29:40;36.70;37.80
22379;DHT22;11357;49.990;7.370;2023-06-26T09:32:08;37.00;37.30
22379;DHT22;11357;49.990;7.370;2023-06-26T09:34:35;37.20;36.70
22379;DHT22;11357;49.990;7.370;2023-06-26T09:37:00;37.20;35.90
22379;DHT22;11357;49.990;7.370;2023-06-26T09:39:32;37.30;35.90
22379;DHT22;11357;49.990;7.370;2023-06-26T09:41:58;37.40;35.60
22379;DHT22;11357;49.990;7.370;2023-06-26T09:44:25;37.50;35.30
22379;DHT22;11357;49.990;7.370;2023-06-26T09:46:50;37.50;35.20
22379;DHT22;11357;49.990;7.370;2023-06-26T09:49:16;37.40;34.80
22379;DHT22;11357;49.990;7.370;2023-06-26T09:51:43;37.30;35.10
22379;DHT22;11357;49.990;7.370;2023-06-26T09:54:09;37.50;35.10
22379;DHT22;11357;49.990;7.370;2023-06-26T09:56:35;37.60;34.60
22379;DHT22;11357;49.990;7.370;2023-06-26T09:59:03;37.70;34.30
22379;DHT22;11357;49.990;7.370;2023-06-26T10:01:30;37.80;34.40
22379;DHT22;11357;49.990;7.370;2023-06-26T10:03:57;37.70;33.70
22379;DHT22;11357;49.990;7.370;2023-06-26T10:06:47;37.70;33.60
22379;DHT22;11357;49.990;7.370;2023-06-26T10:09:19;37.80;33.80
22379;DHT22;11357;49.990;7.370;2023-06-26T10:11:47;37.90;33.60
22379;DHT22;11357;49.990;7.370;2023-06-26T10:14:15;38.00;33.20
22379;DHT22;11357;49.990;7.370;2023-06-26T10:16:42;38.10;32.70
22379;DHT22;11357;49.990;7.370;2023-06-26T10:19:10;38.10;32.60
22379;DHT22;11357;49.990;7.370;2023-06-26T10:21:38;38.20;33.00
22379;DHT22;11357;49.990;7.370;2023-06-26T10:24:06;38.20;32.40
22379;DHT22;11357;49.990;7.370;2023-06-26T10:26:36;38.30;32.60
22379;DHT22;11357;49.990;7.370;2023-06-26T10:29:05;38.50;33.00
22379;DHT22;11357;49.990;7.370;2023-06-26T10:31:32;38.80;32.60
22379;DHT22;11357;49.990;7.370;2023-06-26T10:33:58;38.80;32.20
22379;DHT22;11357;49.990;7.370;2023-06-26T10:36:29;39.00;32.20
22379;DHT22;11357;49.990;7.370;2023-06-26T10:38:57;39.00;31.80
22379;DHT22;11357;49.990;7.370;2023-06-26T10:41:24;39.00;31.40
22379;DHT22;11357;49.990;7.370;2023-06-26T10:43:51;39.00;31.70
22379;DHT22;11357;49.990;7.370;2023-06-26T10:46:18;38.90;32.00
22379;DHT22;11357;49.990;7.370;2023-06-26T10:49:05;39.00;31.90
22379;DHT22;11357;49.990;7.370;2023-06-26T10:51:31;39.00;31.80
22379;DHT22;11357;49.990;7.370;2023-06-26T10:53:57;39.20;31.30
22379;DHT22;11357;49.990;7.370;2023-06-26T10:56:45;39.10;31.40
22379;DHT22;11357;49.990;7.370;2023-06-26T10:59:20;39.10;31.00
22379;DHT22;11357;49.990;7.370;2023-06-26T11:01:57;39.40;31.10
22379;DHT22;11357;49.990;7.370;2023-06-26T11:04:50;39.40;30.90
22379;DHT22;11357;49.990;7.370;2023-06-26T11:07:19;38.40;31.60
22379;DHT22;11357;49.990;7.370;2023-06-26T11:10:08;37.50;32.60
22379;DHT22;11357;49.990;7.370;2023-06-26T11:12:36;36.90;34.00
22379;DHT22;11357;49.990;7.370;2023-06-26T11:15:04;37.00;34.60
22379;DHT22;11357;49.990;7.370;2023-06-26T11:17:29;37.20;33.80
22379;DHT22;11357;49.990;7.370;2023-06-26T11:19:56;37.10;33.90
22379;DHT22;11357;49.990;7.370;2023-06-26T11:22:22;36.90;34.20
22379;DHT22;11357;49.990;7.370;2023-06-26T11:24:53;36.80;33.40
22379;DHT22;11357;49.990;7.370;2023-06-26T11:27:19;36.50;32.90
22379;DHT22;11357;49.990;7.370;2023-06-26T11:29:48;36.40;33.50
22379;DHT22;11357;49.990;7.370;2023-06-26T11:32:15;36.50;32.30
22379;DHT22;11357;49.990;7.370;2023-06-26T11:34:40;36.30;32.30
22379;DHT22;11357;49.990;7.370;2023-06-26T11:37:08;35.90;32.10
22379;DHT22;11357;49.990;7.370;2023-06-26T11:39:34;35.90;33.50
22379;DHT22;11357;49.990;7.370;2023-06-26T11:42:00;36.20;32.70
22379;DHT22;11357;49.990;7.370;2023-06-26T11:44:40;36.50;32.00
22379;DHT22;11357;49.990;7.370;2023-06-26T11:47:06;36.90;31.30
22379;DHT22;11357;49.990;7.370;2023-06-26T11:49:33;37.30;31.20
22379;DHT22;11357;49.990;7.370;2023-06-26T11:51:59;37.60;30.90
22379;DHT22;11357;49.990;7.370;2023-06-26T11:54:28;37.70;29.90
22379;DHT22;11357;49.990;7.370;2023-06-26T11:56:58;37.90;29.70
22379;DHT22;11357;49.990;7.370;2023-06-26T11:59:31;38.10;29.60
22379;DHT22;11357;49.990;7.370;2023-06-26T12:02:00;38.10;29.70
22379;DHT22;11357;49.990;7.370;2023-06-26T12:04:26;38.30;29.40
22379;DHT22;11357;49.990;7.370;2023-06-26T12:06:53;38.30;28.80
22379;DHT22;11357;49.990;7.370;2023-06-26T12:09:27;38.30;28.60
22379;DHT22;11357;49.990;7.370;2023-06-26T12:11:53;38.20;28.80
22379;DHT22;11357;49.990;7.370;2023-06-26T12:14:20;38.30;29.20
22379;DHT22;11357;49.990;7.370;2023-06-26T12:16:47;38.60;29.30
22379;DHT22;11357;49.990;7.370;2023-06-26T12:19:13;38.80;28.90
22379;DHT22;11357;49.990;7.370;2023-06-26T12:24:07;38.90;28.60
22379;DHT22;11357;49.990;7.370;2023-06-26T12:26:34;38.90;28.30
22379;DHT22;11357;49.990;7.370;2023-06-26T12:29:08;38.60;28.60
22379;DHT22;11357;49.990;7.370;2023-06-26T12:31:35;38.50;28.90
22379;DHT22;11357;49.990;7.370;2023-06-26T12:34:12;38.30;28.60
22379;DHT22;11357;49.990;7.370;2023-06-26T12:36:44;38.20;28.20
22379;DHT22;11357;49.990;7.370;2023-06-26T12:39:16;37.90;28.00
22379;DHT22;11357;49.990;7.370;2023-06-26T12:41:52;37.50;28.00
22379;DHT22;11357;49.990;7.370;2023-06-26T12:44:27;37.10;28.00
22379;DHT22;11357;49.990;7.370;2023-06-26T12:47:00;36.70;28.10
22379;DHT22;11357;49.990;7.370;2023-06-26T12:49:49;36.50;28.60
22379;DHT22;11357;49.990;7.370;2023-06-26T12:52:17;36.70;28.30
22379;DHT22;11357;49.990;7.370;2023-06-26T12:54:46;36.90;28.60
22379;DHT22;11357;49.990;7.370;2023-06-26T12:57:13;37.20;28.40
22379;DHT22;11357;49.990;7.370;2023-06-26T12:59:42;37.40;28.20
22379;DHT22;11357;49.990;7.370;2023-06-26T13:02:09;37.30;28.00
22379;DHT22;11357;49.990;7.370;2023-06-26T13:04:36;37.10;28.10
22379;DHT22;11357;49.990;7.370;2023-06-26T13:07:05;37.10;28.50
22379;DHT22;11357;49.990;7.370;2023-06-26T13:09:32;37.10;28.80
22379;DHT22;11357;49.990;7.370;2023-06-26T13:12:00;37.00;28.50
22379;DHT22;11357;49.990;7.370;2023-06-26T13:14:30;37.10;28.70
22379;DHT22;11357;49.990;7.370;2023-06-26T13:16:56;37.20;28.70
22379;DHT22;11357;49.990;7.370;2023-06-26T13:19:23;37.20;28.00
22379;DHT22;11357;49.990;7.370;2023-06-26T13:21:49;37.00;28.10
22379;DHT22;11357;49.990;7.370;2023-06-26T13:24:16;36.90;28.20
22379;DHT22;11357;49.990;7.370;2023-06-26T13:26:41;36.90;28.30
22379;DHT22;11357;49.990;7.370;2023-06-26T13:29:07;36.90;28.00
22379;DHT22;11357;49.990;7.370;2023-06-26T13:31:34;36.90;28.80
22379;DHT22;11357;49.990;7.370;2023-06-26T13:34:00;37.10;28.30
22379;DHT22;11357;49.990;7.370;2023-06-26T13:36:26;37.10;27.50
22379;DHT22;11357;49.990;7.370;2023-06-26T13:38:53;36.60;27.90
22379;DHT22;11357;49.990;7.370;2023-06-26T13:41:26;36.10;27.80
22379;DHT22;11357;49.990;7.370;2023-06-26T13:43:52;35.60;29.10
22379;DHT22;11357;49.990;7.370;2023-06-26T13:46:18;35.50;29.40
22379;DHT22;11357;49.990;7.370;2023-06-26T13:48:45;35.50;29.50
22379;DHT22;11357;49.990;7.370;2023-06-26T13:51:12;35.60;29.90
22379;DHT22;11357;49.990;7.370;2023-06-26T13:53:41;35.50;29.80
22379;DHT22;11357;49.990;7.370;2023-06-26T13:56:07;35.60;29.60
22379;DHT22;11357;49.990;7.370;2023-06-26T13:58:36;35.60;29.60
22379;DHT22;11357;49.990;7.370;2023-06-26T14:01:01;35.60;29.20
22379;DHT22;11357;49.990;7.370;2023-06-26T14:03:28;35.10;28.50
22379;DHT22;11357;49.990;7.370;2023-06-26T14:05:53;34.70;28.80
22379;DHT22;11357;49.990;7.370;2023-06-26T14:08:21;34.40;28.90
22379;DHT22;11357;49.990;7.370;2023-06-26T14:10:47;34.10;29.20
22379;DHT22;11357;49.990;7.370;2023-06-26T14:13:13;33.60;29.20
22379;DHT22;11357;49.990;7.370;2023-06-26T14:15:40;33.30;29.50
22379;DHT22;11357;49.990;7.370;2023-06-26T14:18:06;32.80;29.90
22379;DHT22;11357;49.990;7.370;2023-06-26T14:20:33;32.40;30.60
22379;DHT22;11357;49.990;7.370;2023-06-26T14:22:59;32.40;31.40
22379;DHT22;11357;49.990;7.370;2023-06-26T14:25:25;32.40;30.30
22379;DHT22;11357;49.990;7.370;2023-06-26T14:27:54;32.50;30.90
22379;DHT22;11357;49.990;7.370;2023-06-26T14:30:20;32.50;30.00
22379;DHT22;11357;49.990;7.370;2023-06-26T14:32:47;32.20;30.10
22379;DHT22;11357;49.990;7.370;2023-06-26T14:35:13;32.20;30.60
22379;DHT22;11357;49.990;7.370;2023-06-26T14:37:39;32.20;30.00
22379;DHT22;11357;49.990;7.370;2023-06-26T14:40:06;32.20;30.20
22379;DHT22;11357;49.990;7.370;2023-06-26T14:42:32;32.30;29.90
22379;DHT22;11357;49.990;7.370;2023-06-26T14:44:59;32.20;29.60
22379;DHT22;11357;49.990;7.370;2023-06-26T14:47:24;32.00;29.50
22379;DHT22;11357;49.990;7.370;2023-06-26T14:49:50;31.90;29.70
22379;DHT22;11357;49.990;7.370;2023-06-26T14:52:16;31.70;30.00
22379;DHT22;11357;49.990;7.370;2023-06-26T14:54:42;31.60;30.20
22379;DHT22;11357;49.990;7.370;2023-06-26T14:57:07;31.40;30.30
22379;DHT22;11357;49.990;7.370;2023-06-26T14:59:33;31.20;30.40
22379;DHT22;11357;49.990;7.370;2023-06-26T15:01:59;31.00;30.80
22379;DHT22;11357;49.990;7.370;2023-06-26T15:04:24;30.70;31.20
22379;DHT22;11357;49.990;7.370;2023-06-26T15:06:50;30.60;31.70
22379;DHT22;11357;49.990;7.370;2023-06-26T15:09:16;30.60;31.60
22379;DHT22;11357;49.990;7.370;2023-06-26T15:11:42;30.50;31.90
22379;DHT22;11357;49.990;7.370;2023-06-26T15:14:08;30.60;31.60
22379;DHT22;11357;49.990;7.370;2023-06-26T15:16:34;30.30;31.50
22379;DHT22;11357;49.990;7.370;2023-06-26T15:19:00;30.30;31.90
22379;DHT22;11357;49.990;7.370;2023-06-26T15:21:26;30.20;31.90
22379;DHT22;11357;49.990;7.370;2023-06-26T15:23:56;30.20;32.10
22379;DHT22;11357;49.990;7.370;2023-06-26T15:26:21;30.20;32.00
22379;DHT22;11357;49.990;7.370;2023-06-26T15:28:47;30.20;32.70
22379;DHT22;11357;49.990;7.370;2023-06-26T15:31:17;30.40;32.80
22379;DHT22;11357;49.990;7.370;2023-06-26T15:33:42;30.50;32.80
22379;DHT22;11357;49.990;7.370;2023-06-26T15:36:08;30.70;32.60
22379;DHT22;11357;49.990;7.370;2023-06-26T15:38:34;30.90;32.90
22379;DHT22;11357;49.990;7.370;2023-06-26T15:41:00;31.00;32.30